Time;durP1;ratioP1;P1;durP2;ratioP2;P2;SDS_P1;SDS_P2;PMS_P1;PMS_P2;Temp;Humidity;BMP_temperature;BMP_pressure;BME280_temperature;BME280_humidity;BME280_pressure;Samples;Min_cycle;Max_cycle;Signal;HPM_P1;HPM_P2
2023/12/30 00:01:49;;;;;;;7.57;1.80;;;;;;;;;;5028504;28;20057;-64
2023/12/30 00:04:15;;;;;;;6.80;2.47;;;;;;;;;;5027891;28;20057;-64
2023/12/30 00:06:43;;;;;;;10.17;1.60;;;;;;;;;;5027557;28;20096;-64
2023/12/30 00:09:09;;;;;;;13.23;2.37;;;;;;;;;;5027440;28;20114;-64
2023/12/30 00:11:35;;;;;;;15.53;2.87;;;;;;;;;;5027929;28;20079;-64
2023/12/30 00:14:01;;;;;;;13.23;2.13;;;;;;;;;;5028113;28;20156;-64
2023/12/30 00:16:28;;;;;;;12.37;3.03;;;;;;;;;;5027890;28;20045;-64
2023/12/30 00:18:54;;;;;;;12.93;2.07;;;;;;;;;;5027874;28;20053;-65
2023/12/30 00:21:21;;;;;;;11.77;2.40;;;;;;;;;;5027770;28;20045;-64
2023/12/30 00:23:47;;;;;;;7.27;2.83;;;;;;;;;;5027401;28;20577;-64
2023/12/30 00:26:20;;;;;;;11.67;3.00;;;;;;;;;;5027104;28;20057;-64
2023/12/30 00:28:46;;;;;;;13.27;3.47;;;;;;;;;;5028169;28;20411;-65
2023/12/30 00:31:20;;;;;;;13.63;2.13;;;;;;;;;;5028425;28;20084;-65
2023/12/30 00:33:46;;;;;;;11.93;1.50;;;;;;;;;;5027525;28;20075;-64
2023/12/30 00:36:12;;;;;;;11.03;1.93;;;;;;;;;;5026767;28;20045;-65
2023/12/30 00:38:38;;;;;;;7.07;1.97;;;;;;;;;;5026639;28;20048;-64
2023/12/30 00:41:05;;;;;;;9.43;1.63;;;;;;;;;;5026699;28;20556;-64
2023/12/30 00:43:32;;;;;;;10.33;1.77;;;;;;;;;;5027066;28;20132;-64
2023/12/30 00:45:58;;;;;;;7.83;2.27;;;;;;;;;;5027972;28;20053;-64
2023/12/30 00:48:24;;;;;;;15.77;1.87;;;;;;;;;;5027618;28;20434;-64
2023/12/30 00:50:50;;;;;;;12.03;1.60;;;;;;;;;;5027715;28;20052;-64
2023/12/30 00:53:16;;;;;;;8.60;2.20;;;;;;;;;;5028091;28;20041;-64
2023/12/30 00:55:42;;;;;;;16.27;3.47;;;;;;;;;;5027659;28;20049;-64
2023/12/30 00:58:08;;;;;;;11.77;2.03;;;;;;;;;;5028163;28;20053;-65
2023/12/30 01:00:34;;;;;;;15.23;1.80;;;;;;;;;;5043409;28;20045;-65
2023/12/30 01:03:00;;;;;;;6.13;1.40;;;;;;;;;;5027310;28;20407;-65
2023/12/30 01:05:26;;;;;;;10.40;1.53;;;;;;;;;;5027908;28;20049;-65
2023/12/30 01:07:52;;;;;;;7.23;1.27;;;;;;;;;;5028008;28;20049;-65
2023/12/30 01:10:18;;;;;;;10.97;2.20;;;;;;;;;;5027429;28;20041;-65
2023/12/30 01:12:44;;;;;;;21.67;3.97;;;;;;;;;;5027193;28;20107;-65
2023/12/30 01:15:10;;;;;;;9.83;2.10;;;;;;;;;;5028109;28;20087;-65
2023/12/30 01:17:36;;;;;;;8.37;1.60;;;;;;;;;;5026587;28;20419;-65
2023/12/30 01:20:03;;;;;;;11.33;2.50;;;;;;;;;;5029723;28;20500;-65
2023/12/30 01:22:29;;;;;;;8.13;2.00;;;;;;;;;;5031269;28;20049;-64
2023/12/30 01:24:55;;;;;;;12.87;2.70;;;;;;;;;;5030790;28;20467;-65
2023/12/30 01:27:21;;;;;;;9.30;2.30;;;;;;;;;;5031273;28;20131;-65
2023/12/30 01:29:47;;;;;;;7.20;1.80;;;;;;;;;;5031016;28;20083;-65
2023/12/30 01:32:13;;;;;;;12.10;2.07;;;;;;;;;;5031242;28;20468;-65
2023/12/30 01:34:39;;;;;;;12.53;1.40;;;;;;;;;;5030264;28;20068;-65
2023/12/30 01:37:05;;;;;;;12.33;2.47;;;;;;;;;;5030958;28;20515;-65
2023/12/30 01:39:31;;;;;;;12.70;2.03;;;;;;;;;;5030779;28;20037;-65
2023/12/30 01:41:57;;;;;;;10.50;1.80;;;;;;;;;;5029977;28;20046;-64
2023/12/30 01:44:23;;;;;;;9.87;1.90;;;;;;;;;;5030870;28;20064;-65
2023/12/30 01:46:49;;;;;;;13.23;3.57;;;;;;;;;;5030811;28;20048;-65
2023/12/30 01:49:16;;;;;;;9.57;1.70;;;;;;;;;;5030764;28;20100;-65
2023/12/30 01:51:42;;;;;;;8.70;1.53;;;;;;;;;;5029831;28;20064;-65
2023/12/30 01:54:09;;;;;;;9.43;1.83;;;;;;;;;;5027936;28;20099;-65
2023/12/30 01:56:35;;;;;;;5.73;1.97;;;;;;;;;;5030170;28;20049;-64
2023/12/30 01:59:02;;;;;;;6.53;1.27;;;;;;;;;;5030469;28;20111;-65
2023/12/30 02:01:28;;;;;;;8.63;1.67;;;;;;;;;;5030596;28;20049;-65
2023/12/30 02:03:55;;;;;;;8.40;1.30;;;;;;;;;;5030349;28;20052;-64
2023/12/30 02:06:21;;;;;;;10.33;2.20;;;;;;;;;;5030896;28;20183;-65
2023/12/30 02:08:48;;;;;;;9.07;2.20;;;;;;;;;;5030433;28;20041;-64
2023/12/30 02:11:15;;;;;;;9.80;2.17;;;;;;;;;;5030399;28;20068;-64
2023/12/30 02:13:44;;;;;;;10.10;1.67;;;;;;;;;;5030305;28;20057;-65
2023/12/30 02:16:10;;;;;;;17.23;2.50;;;;;;;;;;5030728;28;20053;-65
2023/12/30 02:18:37;;;;;;;12.37;1.40;;;;;;;;;;5029996;28;20045;-65
2023/12/30 02:21:03;;;;;;;10.20;1.73;;;;;;;;;;5029993;28;20045;-65
2023/12/30 02:23:30;;;;;;;14.37;1.90;;;;;;;;;;5029972;28;20515;-65
2023/12/30 02:25:56;;;;;;;5.87;1.60;;;;;;;;;;5029578;28;20081;-64
2023/12/30 02:28:22;;;;;;;7.03;1.90;;;;;;;;;;5029430;28;20060;-64
2023/12/30 02:30:48;;;;;;;13.20;2.70;;;;;;;;;;5029232;28;20049;-64
2023/12/30 02:33:14;;;;;;;15.90;2.97;;;;;;;;;;5030089;28;20107;-64
2023/12/30 02:35:43;;;;;;;6.83;1.40;;;;;;;;;;5030150;28;20091;-64
2023/12/30 02:38:10;;;;;;;12.77;2.20;;;;;;;;;;5029862;28;20053;-64
2023/12/30 02:40:36;;;;;;;10.10;2.50;;;;;;;;;;5030047;28;20053;-64
2023/12/30 02:43:02;;;;;;;7.37;1.23;;;;;;;;;;5028370;28;20041;-64
2023/12/30 02:45:28;;;;;;;7.60;2.47;;;;;;;;;;5029867;28;20057;-64
2023/12/30 02:47:54;;;;;;;13.87;2.20;;;;;;;;;;5029576;28;20045;-64
2023/12/30 02:50:20;;;;;;;9.30;2.50;;;;;;;;;;5028999;28;20045;-64
2023/12/30 02:52:46;;;;;;;5.60;1.70;;;;;;;;;;5029685;28;20084;-64
2023/12/30 02:55:12;;;;;;;8.37;2.03;;;;;;;;;;5029589;28;20045;-64
2023/12/30 02:57:38;;;;;;;9.33;1.90;;;;;;;;;;5029183;28;20455;-64
2023/12/30 03:00:05;;;;;;;8.63;2.43;;;;;;;;;;5029330;28;20048;-64
2023/12/30 03:02:31;;;;;;;7.83;1.93;;;;;;;;;;5029210;28;20099;-64
2023/12/30 03:04:57;;;;;;;10.63;1.93;;;;;;;;;;5027040;28;20102;-64
2023/12/30 03:07:24;;;;;;;5.93;1.90;;;;;;;;;;5028950;28;20054;-64
2023/12/30 03:09:51;;;;;;;10.27;2.53;;;;;;;;;;5029533;28;20412;-64
2023/12/30 03:12:17;;;;;;;13.67;2.50;;;;;;;;;;5029254;28;20382;-64
2023/12/30 03:14:43;;;;;;;15.77;2.23;;;;;;;;;;5029029;28;20116;-64
2023/12/30 03:17:10;;;;;;;11.80;1.90;;;;;;;;;;5029460;28;20518;-64
2023/12/30 03:19:36;;;;;;;13.40;1.83;;;;;;;;;;5028345;28;20041;-64
2023/12/30 03:22:02;;;;;;;9.13;2.03;;;;;;;;;;5028846;28;20542;-64
2023/12/30 03:24:28;;;;;;;17.57;4.70;;;;;;;;;;5029440;28;20076;-64
2023/12/30 03:26:54;;;;;;;11.93;2.40;;;;;;;;;;5028823;28;20045;-64
2023/12/30 03:29:20;;;;;;;14.07;3.30;;;;;;;;;;5029284;28;20045;-64
2023/12/30 03:31:46;;;;;;;10.97;1.90;;;;;;;;;;5028419;28;20064;-64
2023/12/30 03:34:12;;;;;;;14.93;2.67;;;;;;;;;;5028534;28;20041;-64
2023/12/30 03:36:38;;;;;;;9.53;2.50;;;;;;;;;;5027633;28;20052;-64
2023/12/30 03:39:05;;;;;;;11.67;1.43;;;;;;;;;;5028479;28;20053;-64
2023/12/30 03:41:31;;;;;;;12.63;2.90;;;;;;;;;;5028323;28;20041;-64
2023/12/30 03:43:57;;;;;;;6.50;1.83;;;;;;;;;;5027775;28;20053;-64
2023/12/30 03:46:24;;;;;;;6.77;2.00;;;;;;;;;;5027812;28;20128;-64
2023/12/30 03:48:50;;;;;;;8.87;1.90;;;;;;;;;;5028041;28;20038;-64
2023/12/30 03:51:16;;;;;;;12.43;1.90;;;;;;;;;;5028202;28;20068;-64
2023/12/30 03:53:42;;;;;;;15.27;2.37;;;;;;;;;;5028563;28;20172;-65
2023/12/30 03:56:08;;;;;;;12.07;2.67;;;;;;;;;;5027896;28;20412;-64
2023/12/30 03:58:34;;;;;;;10.23;2.40;;;;;;;;;;5028365;28;20045;-64
2023/12/30 04:01:00;;;;;;;19.30;2.20;;;;;;;;;;5028704;28;20404;-64
2023/12/30 04:03:26;;;;;;;16.27;2.23;;;;;;;;;;5028455;28;20048;-64
2023/12/30 04:05:52;;;;;;;12.13;2.27;;;;;;;;;;5027946;28;20037;-64
2023/12/30 04:08:18;;;;;;;12.93;3.40;;;;;;;;;;5028043;28;20098;-64
2023/12/30 04:10:44;;;;;;;15.20;2.97;;;;;;;;;;5025881;28;20408;-64
2023/12/30 04:13:10;;;;;;;7.57;1.67;;;;;;;;;;5028797;28;20056;-64
2023/12/30 04:15:37;;;;;;;13.93;3.30;;;;;;;;;;5028149;28;20046;-64
2023/12/30 04:18:03;;;;;;;7.33;2.10;;;;;;;;;;5028240;28;20049;-64
2023/12/30 04:20:29;;;;;;;11.67;3.17;;;;;;;;;;5026380;28;20487;-64
2023/12/30 04:22:56;;;;;;;18.90;2.37;;;;;;;;;;5028010;28;20064;-64
2023/12/30 04:25:23;;;;;;;11.73;2.33;;;;;;;;;;5028085;28;20053;-63
2023/12/30 04:27:49;;;;;;;10.93;2.07;;;;;;;;;;5028292;28;20046;-63
2023/12/30 04:30:15;;;;;;;13.27;1.70;;;;;;;;;;5027776;28;20046;-64
2023/12/30 04:32:41;;;;;;;15.90;2.40;;;;;;;;;;5027902;28;20045;-63
2023/12/30 04:35:07;;;;;;;13.30;1.80;;;;;;;;;;5027752;28;20408;-64
2023/12/30 04:37:33;;;;;;;10.97;2.00;;;;;;;;;;5028323;28;20534;-63
2023/12/30 04:39:59;;;;;;;10.93;3.47;;;;;;;;;;5027871;28;20048;-63
2023/12/30 04:42:25;;;;;;;12.83;2.20;;;;;;;;;;5027637;28;20061;-64
2023/12/30 04:44:51;;;;;;;11.37;3.07;;;;;;;;;;5027408;28;20080;-63
2023/12/30 04:47:17;;;;;;;23.23;2.60;;;;;;;;;;5027670;28;20384;-64
2023/12/30 04:49:43;;;;;;;12.13;2.80;;;;;;;;;;5027756;28;20049;-63
2023/12/30 04:52:09;;;;;;;12.57;3.03;;;;;;;;;;5027913;28;20054;-63
2023/12/30 04:54:35;;;;;;;14.30;1.90;;;;;;;;;;5046066;28;20056;-64
2023/12/30 04:57:01;;;;;;;10.33;1.90;;;;;;;;;;5031238;28;20045;-64
2023/12/30 04:59:27;;;;;;;12.03;2.93;;;;;;;;;;5031489;28;20261;-63
2023/12/30 05:01:54;;;;;;;12.57;2.37;;;;;;;;;;5031269;28;20385;-64
2023/12/30 05:04:20;;;;;;;15.20;2.00;;;;;;;;;;5030883;28;20060;-63
2023/12/30 05:06:47;;;;;;;9.83;1.90;;;;;;;;;;5031392;28;20045;-64
2023/12/30 05:09:14;;;;;;;21.03;3.37;;;;;;;;;;5031861;28;20041;-64
2023/12/30 05:11:44;;;;;;;13.10;1.97;;;;;;;;;;5031093;28;20049;-64
2023/12/30 05:14:11;;;;;;;14.33;2.03;;;;;;;;;;5031067;28;20044;-63
2023/12/30 05:16:44;;;;;;;14.17;3.37;;;;;;;;;;5031393;28;20049;-63
2023/12/30 05:19:10;;;;;;;10.25;2.00;;;;;;;;;;5030765;28;20128;-64
2023/12/30 05:21:36;;;;;;;8.70;2.00;;;;;;;;;;5030741;28;20567;-64
2023/12/30 05:24:02;;;;;;;9.57;1.90;;;;;;;;;;5031134;28;20049;-64
2023/12/30 05:26:28;;;;;;;9.67;2.10;;;;;;;;;;5031347;28;20041;-63
2023/12/30 05:28:55;;;;;;;12.37;2.17;;;;;;;;;;5031149;28;20128;-64
2023/12/30 05:31:21;;;;;;;13.93;3.30;;;;;;;;;;5031343;28;20415;-64
2023/12/30 05:33:47;;;;;;;15.10;2.67;;;;;;;;;;5030432;28;20042;-64
2023/12/30 05:36:13;;;;;;;15.03;3.67;;;;;;;;;;5031050;28;20045;-64
2023/12/30 05:38:39;;;;;;;15.93;3.67;;;;;;;;;;5029670;28;20054;-64
2023/12/30 05:41:05;;;;;;;14.87;3.03;;;;;;;;;;5030948;28;20475;-63
2023/12/30 05:43:31;;;;;;;14.50;3.17;;;;;;;;;;5029711;28;20484;-63
2023/12/30 05:45:57;;;;;;;13.63;2.23;;;;;;;;;;5029788;28;20419;-64
2023/12/30 05:48:24;;;;;;;10.47;1.60;;;;;;;;;;5031049;28;20064;-64
2023/12/30 05:50:50;;;;;;;15.90;2.30;;;;;;;;;;5030665;28;20102;-64
2023/12/30 05:53:16;;;;;;;12.77;2.03;;;;;;;;;;5030195;28;20075;-64
2023/12/30 05:55:42;;;;;;;8.60;2.90;;;;;;;;;;5030177;28;20077;-64
2023/12/30 05:58:08;;;;;;;12.80;2.20;;;;;;;;;;5030321;28;20056;-64
2023/12/30 06:00:35;;;;;;;9.73;2.03;;;;;;;;;;5030989;28;20052;-64
2023/12/30 06:03:01;;;;;;;12.03;1.97;;;;;;;;;;5030302;28;20104;-64
2023/12/30 06:05:27;;;;;;;13.33;2.53;;;;;;;;;;5028946;28;20041;-64
2023/12/30 06:07:53;;;;;;;14.80;2.70;;;;;;;;;;5030730;28;20096;-64
2023/12/30 06:10:20;;;;;;;12.40;2.70;;;;;;;;;;5030206;28;20041;-64
2023/12/30 06:12:46;;;;;;;16.07;2.73;;;;;;;;;;5030408;28;20045;-64
2023/12/30 06:15:12;;;;;;;13.70;3.07;;;;;;;;;;5029508;28;20492;-66
2023/12/30 06:17:38;;;;;;;12.77;2.77;;;;;;;;;;5029714;28;20526;-64
2023/12/30 06:20:04;;;;;;;15.80;3.13;;;;;;;;;;5030088;28;20400;-64
2023/12/30 06:22:30;;;;;;;17.33;2.43;;;;;;;;;;5030035;28;20407;-64
2023/12/30 06:24:56;;;;;;;18.13;2.77;;;;;;;;;;5029445;28;20844;-64
2023/12/30 06:27:23;;;;;;;11.07;2.57;;;;;;;;;;5029636;28;20053;-64
2023/12/30 06:29:49;;;;;;;12.77;2.20;;;;;;;;;;5029926;28;20045;-64
2023/12/30 06:32:15;;;;;;;18.90;2.40;;;;;;;;;;5029977;28;20132;-64
2023/12/30 06:34:41;;;;;;;12.10;2.53;;;;;;;;;;5030173;28;20049;-64
2023/12/30 06:37:07;;;;;;;11.90;2.07;;;;;;;;;;5029610;28;20502;-64
2023/12/30 06:39:33;;;;;;;13.40;2.10;;;;;;;;;;5027888;28;20412;-64
2023/12/30 06:41:59;;;;;;;11.00;2.00;;;;;;;;;;5028953;28;20048;-64
2023/12/30 06:44:26;;;;;;;12.63;2.30;;;;;;;;;;5028494;28;20491;-64
2023/12/30 06:46:52;;;;;;;16.23;2.17;;;;;;;;;;5030048;28;20053;-63
2023/12/30 06:49:19;;;;;;;16.57;2.23;;;;;;;;;;5029312;28;20112;-64
2023/12/30 06:51:45;;;;;;;14.90;2.53;;;;;;;;;;5029799;28;20399;-64
2023/12/30 06:54:11;;;;;;;16.70;2.30;;;;;;;;;;5028832;28;20586;-64
2023/12/30 06:56:37;;;;;;;16.00;1.97;;;;;;;;;;5029144;28;20451;-64
2023/12/30 06:59:03;;;;;;;13.83;2.40;;;;;;;;;;5029501;28;20056;-64
2023/12/30 07:01:29;;;;;;;13.43;2.07;;;;;;;;;;5028554;28;20088;-64
2023/12/30 07:03:55;;;;;;;14.00;1.70;;;;;;;;;;5029066;28;20056;-64
2023/12/30 07:06:21;;;;;;;14.90;2.53;;;;;;;;;;5029253;28;20049;-64
2023/12/30 07:08:47;;;;;;;11.67;1.80;;;;;;;;;;5028490;28;20043;-64
2023/12/30 07:11:13;;;;;;;15.13;3.80;;;;;;;;;;5029119;28;20045;-64
2023/12/30 07:13:39;;;;;;;15.07;2.83;;;;;;;;;;5028832;28;20061;-64
2023/12/30 07:16:05;;;;;;;14.20;2.83;;;;;;;;;;5028717;28;20057;-64
2023/12/30 07:18:31;;;;;;;15.93;2.70;;;;;;;;;;5029222;28;20052;-64
2023/12/30 07:20:57;;;;;;;10.07;2.33;;;;;;;;;;5028534;28;20056;-64
2023/12/30 07:23:24;;;;;;;9.00;2.20;;;;;;;;;;5028487;28;20108;-64
2023/12/30 07:25:51;;;;;;;22.07;3.27;;;;;;;;;;5028567;28;20045;-64
2023/12/30 07:28:17;;;;;;;14.13;2.17;;;;;;;;;;5026144;28;20049;-63
2023/12/30 07:30:43;;;;;;;13.33;2.10;;;;;;;;;;5028655;28;20048;-63
2023/12/30 07:33:09;;;;;;;16.83;2.50;;;;;;;;;;5028954;28;20053;-64
2023/12/30 07:35:35;;;;;;;14.17;1.87;;;;;;;;;;5028521;28;20041;-64
2023/12/30 07:38:01;;;;;;;19.00;2.37;;;;;;;;;;5028363;28;20049;-64
2023/12/30 07:40:27;;;;;;;9.87;1.90;;;;;;;;;;5028893;28;20046;-64
2023/12/30 07:42:54;;;;;;;14.40;2.03;;;;;;;;;;5028046;28;20045;-63
2023/12/30 07:45:20;;;;;;;14.00;3.07;;;;;;;;;;5028622;28;20127;-64
2023/12/30 07:47:46;;;;;;;13.67;2.10;;;;;;;;;;5028893;28;20046;-63
2023/12/30 07:50:12;;;;;;;18.70;3.27;;;;;;;;;;5028012;28;20513;-64
2023/12/30 07:52:38;;;;;;;16.97;2.73;;;;;;;;;;5028247;28;20179;-64
2023/12/30 07:55:04;;;;;;;14.80;2.17;;;;;;;;;;5028521;28;20052;-64
2023/12/30 07:57:30;;;;;;;10.43;2.90;;;;;;;;;;5028369;28;20099;-63
2023/12/30 07:59:56;;;;;;;10.00;2.03;;;;;;;;;;5027901;28;20095;-64
2023/12/30 08:02:23;;;;;;;14.87;3.20;;;;;;;;;;5028354;28;20052;-64
2023/12/30 08:04:49;;;;;;;10.07;2.30;;;;;;;;;;5026856;28;20052;-64
2023/12/30 08:07:15;;;;;;;17.50;2.17;;;;;;;;;;5028077;28;20053;-64
2023/12/30 08:09:41;;;;;;;9.90;2.47;;;;;;;;;;5024801;28;20053;-64
2023/12/30 08:12:07;;;;;;;17.33;3.10;;;;;;;;;;5027823;28;20434;-64
2023/12/30 08:14:34;;;;;;;7.40;1.53;;;;;;;;;;5027942;28;20057;-64
2023/12/30 08:17:01;;;;;;;12.90;1.90;;;;;;;;;;5026657;28;20057;-64
2023/12/30 08:19:27;;;;;;;10.47;2.07;;;;;;;;;;5026550;28;20056;-64
2023/12/30 08:21:53;;;;;;;12.60;2.30;;;;;;;;;;5027545;28;20045;-64
2023/12/30 08:24:20;;;;;;;16.33;3.33;;;;;;;;;;5028979;28;20431;-64
2023/12/30 08:26:46;;;;;;;15.00;2.33;;;;;;;;;;5026795;28;20500;-64
2023/12/30 08:29:13;;;;;;;12.40;2.13;;;;;;;;;;5030072;28;20052;-64
2023/12/30 08:31:45;;;;;;;11.57;1.90;;;;;;;;;;5029580;28;20086;-64
2023/12/30 08:34:11;;;;;;;16.80;2.27;;;;;;;;;;5030818;28;20049;-64
2023/12/30 08:36:37;;;;;;;11.67;1.63;;;;;;;;;;5032994;28;20042;-64
2023/12/30 08:39:04;;;;;;;11.90;3.37;;;;;;;;;;5031713;28;20061;-65
2023/12/30 08:41:30;;;;;;;15.43;2.23;;;;;;;;;;5041285;28;20148;-64
2023/12/30 08:43:56;;;;;;;14.63;2.20;;;;;;;;;;5042644;28;20559;-64
2023/12/30 08:46:22;;;;;;;10.97;3.03;;;;;;;;;;5035636;28;20080;-64
2023/12/30 08:48:48;;;;;;;14.13;2.83;;;;;;;;;;5030104;28;20053;-64
2023/12/30 08:51:15;;;;;;;12.50;2.30;;;;;;;;;;5031188;28;20088;-64
2023/12/30 08:53:41;;;;;;;11.63;2.53;;;;;;;;;;5030060;28;20172;-64
2023/12/30 08:56:07;;;;;;;12.70;3.47;;;;;;;;;;5031173;28;20144;-64
2023/12/30 08:58:33;;;;;;;14.53;2.00;;;;;;;;;;5030894;28;20053;-64
2023/12/30 09:00:59;;;;;;;11.23;2.17;;;;;;;;;;5031091;28;20041;-64
2023/12/30 09:03:26;;;;;;;15.40;2.80;;;;;;;;;;5030043;28;20052;-64
2023/12/30 09:05:52;;;;;;;16.33;2.03;;;;;;;;;;5031526;28;20391;-63
2023/12/30 09:08:19;;;;;;;16.93;2.63;;;;;;;;;;5030720;28;20041;-64
2023/12/30 09:10:45;;;;;;;11.47;1.80;;;;;;;;;;5030157;28;20095;-64
2023/12/30 09:13:11;;;;;;;15.23;3.30;;;;;;;;;;5029944;28;20333;-64
2023/12/30 09:15:37;;;;;;;11.97;1.90;;;;;;;;;;5029585;28;20560;-65
2023/12/30 09:18:04;;;;;;;15.87;4.00;;;;;;;;;;5028396;28;20257;-64
2023/12/30 09:20:30;;;;;;;14.30;2.73;;;;;;;;;;5029452;28;20048;-64
2023/12/30 09:22:56;;;;;;;16.03;4.17;;;;;;;;;;5029317;28;20056;-64
2023/12/30 09:25:22;;;;;;;16.97;2.47;;;;;;;;;;5028910;28;20187;-64
2023/12/30 09:27:48;;;;;;;15.27;3.50;;;;;;;;;;5028561;28;20506;-64
2023/12/30 09:30:14;;;;;;;13.47;4.63;;;;;;;;;;5029833;28;20392;-64
2023/12/30 09:32:40;;;;;;;10.07;2.60;;;;;;;;;;5029163;28;20049;-64
2023/12/30 09:35:07;;;;;;;16.53;3.43;;;;;;;;;;5028262;28;20042;-64
2023/12/30 09:37:33;;;;;;;13.73;2.77;;;;;;;;;;5030717;28;20136;-64
2023/12/30 09:39:59;;;;;;;11.67;2.43;;;;;;;;;;5030525;28;20412;-64
2023/12/30 09:42:26;;;;;;;13.07;3.70;;;;;;;;;;5030010;28;20572;-64
2023/12/30 09:44:52;;;;;;;12.87;3.87;;;;;;;;;;5030067;28;20531;-64
2023/12/30 09:47:18;;;;;;;15.40;4.27;;;;;;;;;;5029639;28;20054;-64
2023/12/30 09:49:46;;;;;;;9.20;3.20;;;;;;;;;;5030409;28;20148;-64
2023/12/30 09:52:12;;;;;;;21.13;3.97;;;;;;;;;;5031020;28;20061;-64
2023/12/30 09:54:39;;;;;;;13.97;4.50;;;;;;;;;;5030920;28;20088;-64
2023/12/30 09:57:05;;;;;;;23.87;4.27;;;;;;;;;;5030262;28;20053;-64
2023/12/30 09:59:41;;;;;;;14.07;4.30;;;;;;;;;;5030079;28;20054;-64
2023/12/30 10:02:10;;;;;;;18.17;4.63;;;;;;;;;;5030113;28;20382;-64
2023/12/30 10:04:37;;;;;;;16.57;5.03;;;;;;;;;;5029351;28;20045;-64
2023/12/30 10:07:03;;;;;;;14.73;4.47;;;;;;;;;;5030381;28;20132;-64
2023/12/30 10:09:32;;;;;;;15.27;5.20;;;;;;;;;;5030195;28;20042;-64
2023/12/30 10:11:59;;;;;;;16.63;6.13;;;;;;;;;;5030287;28;20045;-64
2023/12/30 10:14:25;;;;;;;26.57;7.13;;;;;;;;;;5030116;28;20045;-63
2023/12/30 10:16:51;;;;;;;16.87;6.07;;;;;;;;;;5029893;28;20049;-64
2023/12/30 10:19:17;;;;;;;17.93;6.63;;;;;;;;;;5030204;28;20056;-64
2023/12/30 10:21:43;;;;;;;18.27;7.73;;;;;;;;;;5028262;28;20383;-64
2023/12/30 10:24:10;;;;;;;18.93;7.47;;;;;;;;;;5029747;28;20080;-64
2023/12/30 10:26:37;;;;;;;16.90;7.83;;;;;;;;;;5030106;28;20078;-63
2023/12/30 10:29:06;;;;;;;17.37;6.57;;;;;;;;;;5030089;28;20057;-64
2023/12/30 10:31:32;;;;;;;21.13;6.40;;;;;;;;;;5029394;28;20052;-63
2023/12/30 10:33:58;;;;;;;17.70;5.10;;;;;;;;;;5029847;28;20356;-63
2023/12/30 10:36:27;;;;;;;19.53;5.03;;;;;;;;;;5029820;28;20057;-64
2023/12/30 10:38:54;;;;;;;18.20;5.80;;;;;;;;;;5029899;28;20902;-64
2023/12/30 10:41:20;;;;;;;16.77;4.20;;;;;;;;;;5028846;28;20099;-63
2023/12/30 10:43:47;;;;;;;16.23;4.60;;;;;;;;;;5029563;28;20404;-64
2023/12/30 10:46:13;;;;;;;20.30;4.90;;;;;;;;;;5029528;28;20061;-64
2023/12/30 10:48:56;;;;;;;15.23;4.23;;;;;;;;;;5029678;28;20045;-63
2023/12/30 10:51:26;;;;;;;14.37;3.87;;;;;;;;;;5027219;28;20420;-63
2023/12/30 10:53:56;;;;;;;15.70;4.30;;;;;;;;;;5029408;28;20086;-63
2023/12/30 10:56:24;;;;;;;14.57;4.43;;;;;;;;;;5028875;28;20048;-63
2023/12/30 10:58:51;;;;;;;13.00;4.47;;;;;;;;;;5020041;28;20041;-63
2023/12/30 11:01:17;;;;;;;12.70;3.23;;;;;;;;;;5029330;28;20107;-63
2023/12/30 11:03:43;;;;;;;7.87;3.10;;;;;;;;;;5028681;28;20054;-63
2023/12/30 11:06:12;;;;;;;17.30;3.27;;;;;;;;;;5029064;28;20046;-63
2023/12/30 11:08:43;;;;;;;9.53;3.07;;;;;;;;;;5028651;28;20061;-63
2023/12/30 11:11:11;;;;;;;15.97;3.97;;;;;;;;;;5029393;28;20042;-63
2023/12/30 11:13:37;;;;;;;14.07;3.13;;;;;;;;;;5036622;28;20091;-63
2023/12/30 11:16:13;;;;;;;14.63;3.30;;;;;;;;;;5035178;28;20068;-63
2023/12/30 11:18:46;;;;;;;11.23;3.37;;;;;;;;;;5029195;28;20084;-64
2023/12/30 11:21:12;;;;;;;8.97;2.50;;;;;;;;;;5029228;28;20136;-63
2023/12/30 11:23:38;;;;;;;10.77;2.70;;;;;;;;;;5027109;28;20300;-63
2023/12/30 11:26:07;;;;;;;11.97;3.00;;;;;;;;;;5028243;28;20514;-63
2023/12/30 11:28:33;;;;;;;17.80;3.03;;;;;;;;;;5027260;28;20046;-63
2023/12/30 11:31:00;;;;;;;22.33;3.83;;;;;;;;;;5028397;28;20045;-64
2023/12/30 11:33:27;;;;;;;11.33;3.30;;;;;;;;;;5041608;28;20064;-64
2023/12/30 11:35:56;;;;;;;9.30;3.30;;;;;;;;;;5027403;28;20091;-64
2023/12/30 11:38:24;;;;;;;18.13;2.87;;;;;;;;;;5028856;28;20099;-63
2023/12/30 11:40:57;;;;;;;10.70;3.40;;;;;;;;;;5026594;28;20171;-64
2023/12/30 11:43:25;;;;;;;12.40;3.20;;;;;;;;;;5025783;28;20572;-64
2023/12/30 11:45:52;;;;;;;15.37;3.53;;;;;;;;;;5026141;28;20049;-64
2023/12/30 11:48:19;;;;;;;20.73;3.17;;;;;;;;;;5026863;28;20045;-64
2023/12/30 11:50:51;;;;;;;18.87;3.73;;;;;;;;;;5028526;28;20060;-63
2023/12/30 11:53:18;;;;;;;19.57;3.70;;;;;;;;;;5028805;28;20049;-63
2023/12/30 11:55:44;;;;;;;15.40;3.53;;;;;;;;;;5015807;28;20413;-63
2023/12/30 11:58:10;;;;;;;17.50;3.60;;;;;;;;;;5028224;28;20512;-63
2023/12/30 12:00:37;;;;;;;14.90;3.40;;;;;;;;;;5027917;28;20092;-63
2023/12/30 12:03:03;;;;;;;15.10;4.10;;;;;;;;;;5027852;28;20053;-63
2023/12/30 12:05:31;;;;;;;17.13;4.30;;;;;;;;;;5028264;28;20057;-63
2023/12/30 12:07:58;;;;;;;20.07;3.33;;;;;;;;;;5027991;28;20057;-63
2023/12/30 12:10:24;;;;;;;16.30;3.67;;;;;;;;;;5028214;28;20046;-63
2023/12/30 12:12:50;;;;;;;13.43;3.53;;;;;;;;;;5027961;28;20052;-63
2023/12/30 12:15:16;;;;;;;18.23;3.83;;;;;;;;;;5027358;28;20037;-64
2023/12/30 12:17:42;;;;;;;13.23;3.57;;;;;;;;;;5028180;28;20037;-63
2023/12/30 12:20:10;;;;;;;16.93;3.90;;;;;;;;;;5028148;28;20060;-63
2023/12/30 12:22:36;;;;;;;18.47;3.47;;;;;;;;;;5028029;28;20111;-63
2023/12/30 12:25:02;;;;;;;17.60;4.40;;;;;;;;;;5027264;28;20041;-63
2023/12/30 12:27:29;;;;;;;22.00;4.37;;;;;;;;;;5027930;28;20037;-63
2023/12/30 12:29:55;;;;;;;17.50;5.60;;;;;;;;;;5027952;28;20087;-63
2023/12/30 12:32:21;;;;;;;17.77;4.00;;;;;;;;;;5028137;28;20282;-63
2023/12/30 12:34:48;;;;;;;17.47;4.23;;;;;;;;;;5027741;28;20041;-63
2023/12/30 12:37:17;;;;;;;17.23;5.37;;;;;;;;;;5027908;28;20044;-63
2023/12/30 12:39:43;;;;;;;18.07;4.60;;;;;;;;;;5025882;28;20240;-63
2023/12/30 12:42:13;;;;;;;20.77;3.87;;;;;;;;;;5027692;28;20057;-63
2023/12/30 12:44:40;;;;;;;18.77;3.80;;;;;;;;;;5027442;28;20179;-63
2023/12/30 12:47:08;;;;;;;21.07;3.93;;;;;;;;;;5027378;28;20052;-63
2023/12/30 12:49:34;;;;;;;19.07;4.70;;;;;;;;;;5027614;28;20455;-63
2023/12/30 12:52:00;;;;;;;18.40;3.83;;;;;;;;;;5027082;28;20464;-63
2023/12/30 12:54:26;;;;;;;17.30;4.30;;;;;;;;;;5027920;28;20459;-63
2023/12/30 12:56:52;;;;;;;23.17;5.27;;;;;;;;;;5026998;28;20049;-63
2023/12/30 12:59:19;;;;;;;18.30;4.30;;;;;;;;;;5027910;28;20049;-63
2023/12/30 13:01:45;;;;;;;20.03;4.87;;;;;;;;;;5027116;28;20053;-63
2023/12/30 13:04:13;;;;;;;17.93;4.50;;;;;;;;;;5027741;28;20055;-63
2023/12/30 13:06:39;;;;;;;25.93;5.00;;;;;;;;;;5027444;28;20495;-63
2023/12/30 13:11:50;;;;;;;13.43;3.60;;;;;;;;;;5027531;28;20050;-63
2023/12/30 13:14:20;;;;;;;21.43;5.87;;;;;;;;;;5028100;28;20042;-63
2023/12/30 13:16:46;;;;;;;14.17;4.40;;;;;;;;;;5031234;28;20049;-63
2023/12/30 13:19:12;;;;;;;21.73;4.83;;;;;;;;;;5031019;28;20057;-63
2023/12/30 13:21:38;;;;;;;22.87;4.60;;;;;;;;;;5029644;28;20431;-63
2023/12/30 13:24:05;;;;;;;22.00;4.77;;;;;;;;;;5031231;28;20407;-63
2023/12/30 13:26:31;;;;;;;15.93;4.90;;;;;;;;;;5030835;28;20425;-63
2023/12/30 13:28:57;;;;;;;23.33;4.43;;;;;;;;;;5031348;28;20053;-63
2023/12/30 13:31:25;;;;;;;21.73;4.67;;;;;;;;;;5030996;28;20046;-64
2023/12/30 13:33:54;;;;;;;16.53;5.77;;;;;;;;;;5030386;28;20415;-63
2023/12/30 13:36:20;;;;;;;19.43;6.37;;;;;;;;;;5030718;28;20049;-63
2023/12/30 13:38:52;;;;;;;21.00;5.20;;;;;;;;;;5030634;28;20041;-63
2023/12/30 13:41:24;;;;;;;18.43;5.03;;;;;;;;;;5029378;28;20049;-63
2023/12/30 13:43:52;;;;;;;20.30;5.17;;;;;;;;;;5030467;28;20085;-63
2023/12/30 13:52:19;;;;;;;18.23;4.90;;;;;;;;;;4956124;28;20059;-63
2023/12/30 13:54:45;;;;;;;19.53;5.13;;;;;;;;;;5009904;28;20484;-63
2023/12/30 13:57:12;;;;;;;22.60;5.93;;;;;;;;;;5010555;28;20416;-63
2023/12/30 13:59:44;;;;;;;21.57;6.73;;;;;;;;;;5016095;28;20098;-63
2023/12/30 14:02:11;;;;;;;19.93;6.77;;;;;;;;;;5045621;28;20423;-63
2023/12/30 14:04:37;;;;;;;16.00;7.20;;;;;;;;;;5030584;28;20068;-63
2023/12/30 14:07:12;;;;;;;20.17;7.60;;;;;;;;;;5029441;28;20052;-63
2023/12/30 14:09:49;;;;;;;27.23;9.57;;;;;;;;;;5030386;28;20504;-63
2023/12/30 14:12:17;;;;;;;21.27;8.00;;;;;;;;;;5030155;28;20080;-63
2023/12/30 14:14:51;;;;;;;19.93;7.50;;;;;;;;;;5029014;28;20128;-63
2023/12/30 14:17:17;;;;;;;;;;;;;;;;;;5030776;28;20069;-63
2023/12/30 14:19:43;;;;;;;20.67;9.17;;;;;;;;;;5030153;28;19975;-63
2023/12/30 14:22:09;;;;;;;27.23;8.80;;;;;;;;;;5029403;28;20053;-63
2023/12/30 14:24:35;;;;;;;29.73;8.57;;;;;;;;;;5030190;28;20107;-63
2023/12/30 14:27:01;;;;;;;24.17;8.30;;;;;;;;;;5029191;28;20406;-63
2023/12/30 14:29:28;;;;;;;27.73;9.37;;;;;;;;;;5029981;28;20049;-63
2023/12/30 14:31:54;;;;;;;24.67;10.50;;;;;;;;;;5029388;28;20041;-63
2023/12/30 14:34:20;;;;;;;27.57;9.70;;;;;;;;;;5028099;28;20374;-63
2023/12/30 14:36:46;;;;;;;27.30;8.03;;;;;;;;;;5029450;28;20053;-64
2023/12/30 14:39:15;;;;;;;23.27;7.53;;;;;;;;;;5029388;28;20083;-63